Time;durP1;ratioP1;P1;durP2;ratioP2;P2;SDS_P1;SDS_P2;PMS_P1;PMS_P2;Temp;Humidity;BMP_temperature;BMP_pressure;BME280_temperature;BME280_humidity;BME280_pressure;Samples;Min_cycle;Max_cycle;Signal;HPM_P1;HPM_P2
2021/04/10 00:00:34;;;;;;;13.90;5.43;;;;;;;6.04;100.00;101349.31;6135609;23;20002;-81
2021/04/10 00:02:59;;;;;;;8.90;4.40;;;;;;;6.05;100.00;101353.66;6133016;23;20037;-81
2021/04/10 00:05:26;;;;;;;12.50;4.47;;;;;;;6.01;100.00;101344.09;6133799;23;20002;-81
2021/04/10 00:07:52;;;;;;;11.55;3.90;;;;;;;6.07;100.00;101347.47;6133865;23;20005;-81
2021/04/10 00:10:18;;;;;;;12.85;4.05;;;;;;;6.02;100.00;101337.97;6133279;23;20025;-81
2021/04/10 00:12:44;;;;;;;8.15;3.10;;;;;;;5.97;100.00;101348.53;6133074;23;20115;-82
2021/04/10 00:15:13;;;;;;;10.07;4.00;;;;;;;5.90;100.00;101342.50;6107086;23;20027;-80
2021/04/10 00:17:38;;;;;;;16.33;3.67;;;;;;;5.82;100.00;101339.13;6135761;23;20025;-81
2021/04/10 00:20:10;;;;;;;12.00;2.90;;;;;;;5.78;100.00;101341.88;6133779;23;20021;-81
2021/04/10 00:22:36;;;;;;;11.90;3.00;;;;;;;5.85;100.00;101346.97;6134864;23;20057;-81
2021/04/10 00:25:01;;;;;;;9.48;3.58;;;;;;;5.76;100.00;101334.00;6134462;23;20005;-81
2021/04/10 00:27:27;;;;;;;9.82;2.60;;;;;;;5.75;100.00;101342.75;6133500;23;20002;-80
2021/04/10 00:29:52;;;;;;;9.73;3.50;;;;;;;5.72;100.00;101337.56;6132468;23;20006;-80
2021/04/10 00:32:17;;;;;;;10.77;3.70;;;;;;;5.61;100.00;101331.63;6134252;23;20017;-80
2021/04/10 00:34:42;;;;;;;7.75;3.28;;;;;;;5.66;100.00;101335.91;6135888;23;20408;-80
2021/04/10 00:37:08;;;;;;;11.07;2.72;;;;;;;5.65;100.00;101331.56;6133618;23;20025;-81
2021/04/10 00:39:33;;;;;;;12.70;3.47;;;;;;;5.63;100.00;101348.22;6133529;23;20070;-80
2021/04/10 00:41:58;;;;;;;14.00;4.28;;;;;;;5.61;100.00;101337.72;6134500;23;20006;-80
2021/04/10 00:44:24;;;;;;;11.13;4.45;;;;;;;5.64;100.00;101352.56;6133881;23;20006;-80
2021/04/10 00:46:49;;;;;;;16.60;3.38;;;;;;;5.62;100.00;101360.47;6107791;23;20407;-80
2021/04/10 00:49:14;;;;;;;12.38;2.67;;;;;;;5.56;100.00;101351.81;6133381;23;20006;-80
2021/04/10 00:51:40;;;;;;;9.90;3.13;;;;;;;5.57;100.00;101354.44;6108348;23;20381;-80
2021/04/10 00:54:05;;;;;;;7.85;2.72;;;;;;;5.56;100.00;101354.44;6134388;23;20008;-80
2021/04/10 00:56:31;;;;;;;11.55;3.08;;;;;;;5.55;100.00;101355.31;6134221;23;20033;-80
2021/04/10 00:58:56;;;;;;;12.60;2.80;;;;;;;5.48;100.00;101354.56;6130442;23;20387;-79
2021/04/10 01:01:21;;;;;;;5.45;2.58;;;;;;;5.39;100.00;101352.94;6132047;23;20017;-80
2021/04/10 01:03:47;;;;;;;10.80;2.97;;;;;;;5.34;100.00;101352.16;6131395;23;20317;-81
2021/04/10 01:06:12;;;;;;;16.50;3.42;;;;;;;5.27;100.00;101355.75;6107057;23;20001;-80
2021/04/10 01:08:37;;;;;;;12.65;3.15;;;;;;;5.23;100.00;101347.97;6135140;23;20016;-79
2021/04/10 01:11:06;;;;;;;10.00;3.45;;;;;;;5.29;100.00;101347.88;6135463;23;20037;-79
2021/04/10 01:13:41;;;;;;;9.63;3.08;;;;;;;5.26;100.00;101348.75;6134414;23;20009;-79
2021/04/10 01:16:19;;;;;;;10.43;3.83;;;;;;;5.14;100.00;101348.94;6134564;23;20002;-79
2021/04/10 01:19:13;;;;;;;8.80;3.22;;;;;;;5.18;100.00;101341.03;6108054;23;20020;-80
2021/04/10 01:21:47;;;;;;;10.80;3.40;;;;;;;5.17;100.00;101344.53;6134188;23;20009;-80
2021/04/10 01:24:39;;;;;;;8.15;3.15;;;;;;;5.15;100.00;101338.44;6133921;23;20006;-80
2021/04/10 01:27:10;;;;;;;12.35;3.22;;;;;;;5.20;100.00;101344.47;6133737;23;20403;-80
2021/04/10 01:29:43;;;;;;;10.15;3.45;;;;;;;5.18;100.00;101338.41;6133450;23;20617;-80
2021/04/10 01:32:11;;;;;;;11.63;3.97;;;;;;;5.17;100.00;101341.91;6132149;23;20010;-79
2021/04/10 01:34:45;;;;;;;13.77;3.55;;;;;;;5.22;100.00;101339.22;6131830;23;20001;-80
2021/04/10 01:37:15;;;;;;;10.10;3.17;;;;;;;5.24;100.00;101345.31;6132597;23;20002;-80
2021/04/10 01:39:42;;;;;;;12.65;3.53;;;;;;;5.27;100.00;101352.25;6133478;23;20065;-79
2021/04/10 01:42:11;;;;;;;8.30;2.45;;;;;;;5.27;100.00;101353.13;6133418;23;20427;-80
2021/04/10 01:44:39;;;;;;;11.25;3.28;;;;;;;5.25;100.00;101356.66;6133927;23;20416;-79
2021/04/10 01:47:06;;;;;;;17.77;3.72;;;;;;;5.27;100.00;101353.13;6109440;23;20006;-79
2021/04/10 01:49:34;;;;;;;12.38;3.30;;;;;;;5.19;100.00;101342.75;6109568;23;20005;-81
2021/04/10 01:52:02;;;;;;;12.85;4.85;;;;;;;5.20;100.00;101348.84;6134725;23;20006;-80
2021/04/10 01:54:27;;;;;;;16.92;4.25;;;;;;;5.24;100.00;101347.94;6134729;23;20002;-80
2021/04/10 01:56:53;;;;;;;11.73;3.50;;;;;;;5.22;100.00;101347.09;6133382;23;20795;-81
2021/04/10 01:59:19;;;;;;;15.52;4.45;;;;;;;5.18;100.00;101350.63;6134158;23;20009;-81
2021/04/10 02:01:49;;;;;;;15.57;5.03;;;;;;;5.10;100.00;101353.34;6133949;23;20002;-81
2021/04/10 02:04:14;;;;;;;9.32;3.50;;;;;;;5.12;100.00;101354.22;6108081;23;20036;-80
2021/04/10 02:06:43;;;;;;;11.25;4.15;;;;;;;5.08;100.00;101352.53;6133123;23;20080;-80
2021/04/10 02:09:10;;;;;;;11.07;3.45;;;;;;;5.00;100.00;101353.50;6132077;23;20763;-80
2021/04/10 02:11:36;;;;;;;9.98;3.38;;;;;;;4.99;100.00;101351.78;6132359;23;20060;-80
2021/04/10 02:14:05;;;;;;;15.88;4.03;;;;;;;4.94;100.00;101352.69;6106608;23;20447;-80
2021/04/10 02:16:31;;;;;;;9.43;5.03;;;;;;;4.91;100.00;101352.72;6106655;23;20014;-80
2021/04/10 02:18:57;;;;;;;15.05;4.00;;;;;;;4.97;100.00;101346.56;6132797;23;20013;-80
2021/04/10 02:21:27;;;;;;;9.38;3.58;;;;;;;4.98;100.00;101352.66;6132300;23;20081;-82
2021/04/10 02:23:53;;;;;;;11.65;3.78;;;;;;;4.94;100.00;101352.69;6132295;23;20002;-82
2021/04/10 02:26:20;;;;;;;9.50;3.97;;;;;;;5.00;100.00;101363.97;6131731;23;20281;-80
2021/04/10 02:28:46;;;;;;;16.38;3.92;;;;;;;5.03;100.00;101361.34;6131307;23;19998;-81
2021/04/10 02:31:17;;;;;;;15.80;4.03;;;;;;;5.08;100.00;101354.28;6132685;23;20064;-80
2021/04/10 02:33:45;;;;;;;17.38;4.25;;;;;;;4.96;100.00;101357.91;6131880;23;19998;-79
2021/04/10 02:36:16;;;;;;;15.65;3.53;;;;;;;4.99;100.00;101359.63;6132581;23;20033;-81
2021/04/10 02:38:43;;;;;;;15.52;4.13;;;;;;;4.91;100.00;101352.72;6105520;23;20022;-80
2021/04/10 02:41:13;;;;;;;10.38;4.32;;;;;;;4.88;100.00;101363.25;6105962;23;20117;-80
2021/04/10 02:43:42;;;;;;;10.18;3.70;;;;;;;4.92;100.00;101364.97;6131078;23;20109;-79
2021/04/10 02:46:09;;;;;;;9.27;4.22;;;;;;;4.89;100.00;101372.84;6132150;23;20085;-79
2021/04/10 02:48:44;;;;;;;11.27;3.92;;;;;;;4.88;100.00;101373.72;6105488;23;20712;-79
2021/04/10 02:51:11;;;;;;;13.40;3.95;;;;;;;4.90;100.00;101374.56;6131572;23;20002;-79
2021/04/10 02:53:38;;;;;;;12.07;3.58;;;;;;;4.94;100.00;101376.28;6131961;23;20002;-80
2021/04/10 02:56:04;;;;;;;8.98;3.53;;;;;;;4.85;100.00;101372.91;6108861;23;20016;-81
2021/04/10 02:58:31;;;;;;;10.43;3.40;;;;;;;4.84;100.00;101377.28;6109275;23;20140;-81
2021/04/10 03:00:59;;;;;;;12.02;3.30;;;;;;;4.93;100.00;101369.31;6134706;23;20079;-80
2021/04/10 03:03:26;;;;;;;14.95;4.40;;;;;;;4.85;100.00;101378.13;6108084;23;20304;-79
2021/04/10 03:05:53;;;;;;;15.63;3.72;;;;;;;4.81;100.00;101379.91;6134199;23;20002;-80
2021/04/10 03:08:21;;;;;;;7.82;2.63;;;;;;;4.87;100.00;101386.81;6133815;23;20520;-81
2021/04/10 03:10:49;;;;;;;10.50;3.28;;;;;;;4.84;100.00;101379.03;6132745;23;20010;-81
2021/04/10 03:13:15;;;;;;;10.82;3.00;;;;;;;4.81;100.00;101379.06;6107885;23;20010;-80
2021/04/10 03:15:41;;;;;;;16.63;3.38;;;;;;;4.88;100.00;101373.72;6133690;23;20005;-79
2021/04/10 03:18:09;;;;;;;12.88;2.78;;;;;;;4.85;100.00;101373.75;6134151;23;20002;-80
2021/04/10 03:20:35;;;;;;;10.07;2.95;;;;;;;4.87;100.00;101379.88;6136799;23;20001;-78
2021/04/10 03:23:00;;;;;;;10.60;3.83;;;;;;;4.87;100.00;101377.25;6136109;23;20009;-78
2021/04/10 03:25:25;;;;;;;11.15;3.25;;;;;;;4.78;100.00;101379.09;6136659;23;20081;-79
2021/04/10 03:27:51;;;;;;;15.48;3.13;;;;;;;4.86;100.00;101377.25;6133209;23;20896;-80
2021/04/10 03:30:16;;;;;;;10.98;2.90;;;;;;;4.85;100.00;101376.38;6133316;23;20117;-81
2021/04/10 03:32:45;;;;;;;12.50;2.80;;;;;;;4.85;100.00;101376.38;6132668;23;20001;-82
2021/04/10 03:35:11;;;;;;;9.60;3.50;;;;;;;4.80;100.00;101374.72;6132315;23;20033;-80
2021/04/10 03:37:38;;;;;;;12.20;3.17;;;;;;;4.85;100.00;101371.13;6106156;23;20018;-82
2021/04/10 03:40:05;;;;;;;13.10;3.20;;;;;;;4.85;100.00;101378.13;6132660;23;20308;-81
2021/04/10 03:42:42;;;;;;;16.95;3.38;;;;;;;4.79;100.00;101375.59;6106484;23;20017;-80
2021/04/10 03:45:14;;;;;;;11.52;4.07;;;;;;;4.74;100.00;101373.03;6106991;23;20002;-80
2021/04/10 03:47:39;;;;;;;13.43;4.13;;;;;;;4.85;100.00;101375.50;6107165;23;20010;-79
2021/04/10 03:50:06;;;;;;;17.95;3.50;;;;;;;4.80;100.00;101375.56;6106416;23;20094;-79
2021/04/10 03:52:31;;;;;;;10.32;2.95;;;;;;;4.79;100.00;101368.59;6132773;23;20397;-82
2021/04/10 03:54:56;;;;;;;16.52;4.40;;;;;;;4.76;100.00;101379.09;6106927;23;20013;-80
2021/04/10 03:57:22;;;;;;;13.73;3.33;;;;;;;4.72;100.00;101374.81;6107471;23;20081;-81
2021/04/10 03:59:48;;;;;;;10.68;3.35;;;;;;;4.71;100.00;101369.56;6132808;23;19998;-81
2021/04/10 04:02:13;;;;;;;13.82;3.25;;;;;;;4.74;100.00;101369.56;6107656;23;20034;-79
2021/04/10 04:04:39;;;;;;;13.40;3.42;;;;;;;4.68;100.00;101365.25;6106812;23;20431;-82
2021/04/10 04:07:04;;;;;;;9.93;2.30;;;;;;;4.64;100.00;101360.94;6107174;23;20398;-82
2021/04/10 04:09:29;;;;;;;8.50;3.35;;;;;;;4.70;100.00;101366.09;6107122;23;20450;-81
2021/04/10 04:11:55;;;;;;;10.63;3.05;;;;;;;4.68;100.00;101367.88;6132795;23;20006;-81
2021/04/10 04:14:20;;;;;;;12.00;3.75;;;;;;;4.73;100.00;101358.22;6132697;23;20006;-81
2021/04/10 04:16:45;;;;;;;11.77;3.50;;;;;;;4.72;100.00;101366.06;6106989;23;20006;-82
2021/04/10 04:19:11;;;;;;;11.90;3.00;;;;;;;4.72;100.00;101372.19;6134741;23;20006;-81
2021/04/10 04:21:36;;;;;;;13.65;3.20;;;;;;;4.70;100.00;101371.31;6136194;23;20030;-80
2021/04/10 04:24:02;;;;;;;12.18;3.75;;;;;;;4.64;100.00;101376.63;6112102;23;20006;-81
2021/04/10 04:26:27;;;;;;;14.20;4.45;;;;;;;4.70;100.00;101383.56;6108807;23;20100;-81
2021/04/10 04:28:52;;;;;;;9.82;2.75;;;;;;;4.71;100.00;101383.53;6133664;23;20009;-81
2021/04/10 04:31:21;;;;;;;9.25;3.60;;;;;;;4.61;100.00;101393.22;6132369;23;20042;-81
2021/04/10 04:33:47;;;;;;;11.23;3.17;;;;;;;4.67;100.00;101400.19;6132664;23;20392;-81
2021/04/10 04:36:12;;;;;;;12.73;3.50;;;;;;;4.70;100.00;101394.03;6131624;23;20002;-81
2021/04/10 04:38:38;;;;;;;9.20;3.13;;;;;;;4.66;100.00;101398.44;6105468;23;20033;-81
2021/04/10 04:41:03;;;;;;;12.52;3.60;;;;;;;4.68;100.00;101392.31;6132237;23;20046;-80
2021/04/10 04:43:28;;;;;;;12.57;3.22;;;;;;;4.70;100.00;101394.91;6132451;23;20021;-80
2021/04/10 04:45:54;;;;;;;20.65;4.55;;;;;;;4.62;100.00;101392.38;6105902;23;20012;-80
2021/04/10 04:48:19;;;;;;;10.07;3.45;;;;;;;4.68;100.00;101389.69;6107669;23;20294;-80
2021/04/10 04:50:44;;;;;;;10.30;3.13;;;;;;;4.62;100.00;101389.75;6108787;23;20016;-81
2021/04/10 04:53:09;;;;;;;11.98;4.25;;;;;;;4.61;100.00;101389.75;6135783;23;20010;-81
2021/04/10 04:55:35;;;;;;;9.20;2.85;;;;;;;4.63;100.00;101390.63;6134991;23;20006;-81
2021/04/10 04:58:00;;;;;;;13.75;3.53;;;;;;;4.54;100.00;101388.09;6135798;23;19998;-81
2021/04/10 05:00:26;;;;;;;10.85;3.67;;;;;;;4.59;100.00;101386.31;6134768;23;20005;-81
2021/04/10 05:02:51;;;;;;;13.48;4.97;;;;;;;4.51;100.00;101388.13;6134437;23;20017;-81
2021/04/10 05:05:16;;;;;;;8.63;3.55;;;;;;;4.54;100.00;101385.47;6134584;23;20005;-81
2021/04/10 05:07:42;;;;;;;11.82;3.80;;;;;;;4.55;100.00;101395.94;6133878;23;20002;-81
2021/04/10 05:10:08;;;;;;;13.88;3.83;;;;;;;4.55;100.00;101395.06;6107851;23;20002;-81
2021/04/10 05:12:33;;;;;;;13.85;4.38;;;;;;;4.56;100.00;101396.78;6133269;23;20028;-81
2021/04/10 05:14:59;;;;;;;10.02;4.25;;;;;;;4.57;100.00;101383.72;6133811;23;20006;-81
2021/04/10 05:17:24;;;;;;;13.15;3.83;;;;;;;4.52;100.00;101390.75;6133032;23;20108;-81
2021/04/10 05:19:52;;;;;;;11.30;4.03;;;;;;;4.59;100.00;101391.53;6132864;23;20014;-82
2021/04/10 05:22:17;;;;;;;18.23;3.90;;;;;;;4.63;100.00;101394.09;6132621;23;20012;-80
2021/04/10 05:24:42;;;;;;;17.60;4.10;;;;;;;4.62;100.00;101394.13;6132418;23;20006;-81
2021/04/10 05:27:07;;;;;;;16.27;6.38;;;;;;;4.60;100.00;101401.13;6108136;23;20013;-82
2021/04/10 05:29:33;;;;;;;14.40;4.55;;;;;;;4.64;100.00;101400.22;6135525;23;20002;-82
2021/04/10 05:31:59;;;;;;;16.58;3.90;;;;;;;4.62;100.00;101405.47;6134282;23;20475;-81
2021/04/10 05:34:25;;;;;;;8.55;3.88;;;;;;;4.64;100.00;101405.44;6133798;23;20006;-81
2021/04/10 05:36:50;;;;;;;15.35;4.97;;;;;;;4.63;100.00;101396.72;6132760;23;20009;-80
2021/04/10 05:39:15;;;;;;;6.88;4.43;;;;;;;4.65;100.00;101397.56;6133393;23;20014;-81
2021/04/10 05:41:41;;;;;;;12.57;4.63;;;;;;;4.73;100.00;101401.88;6133883;23;20003;-82
2021/04/10 05:44:06;;;;;;;13.68;4.07;;;;;;;4.74;100.00;101401.84;6133636;23;20462;-81
2021/04/10 05:46:31;;;;;;;20.58;6.93;;;;;;;4.76;100.00;101407.91;6134808;23;20077;-81
2021/04/10 05:48:57;;;;;;;11.05;4.00;;;;;;;4.83;100.00;101417.44;6135108;23;20001;-81
2021/04/10 05:51:22;;;;;;;19.50;4.95;;;;;;;4.81;100.00;101413.97;6109153;23;20002;-82
2021/04/10 05:53:47;;;;;;;15.57;4.35;;;;;;;4.91;100.00;101417.34;6108868;23;20344;-81
2021/04/10 05:56:13;;;;;;;16.30;5.15;;;;;;;4.96;100.00;101428.63;6133829;23;20006;-81
2021/04/10 05:58:38;;;;;;;12.82;4.53;;;;;;;4.96;100.00;101425.16;6133863;23;20006;-82
2021/04/10 06:01:04;;;;;;;16.08;5.18;;;;;;;5.00;100.00;101439.94;6107868;23;20423;-82
2021/04/10 06:03:30;;;;;;;12.10;4.45;;;;;;;5.00;100.00;101437.34;6134141;23;20024;-81
2021/04/10 06:05:56;;;;;;;18.83;5.10;;;;;;;4.98;100.00;101432.13;6134187;23;20100;-81
2021/04/10 06:08:22;;;;;;;19.20;5.03;;;;;;;4.96;100.00;101438.25;6132708;23;20006;-82
2021/04/10 06:10:47;;;;;;;10.98;4.30;;;;;;;5.09;100.00;101442.47;6131754;23;20006;-82
2021/04/10 06:13:13;;;;;;;14.48;4.95;;;;;;;5.05;100.00;101441.63;6132491;23;20006;-81
2021/04/10 06:15:38;;;;;;;10.63;4.40;;;;;;;5.18;100.00;101442.34;6106462;23;20010;-81
2021/04/10 06:18:04;;;;;;;7.57;4.40;;;;;;;5.28;100.00;101436.09;6132730;23;20016;-82
2021/04/10 06:20:30;;;;;;;14.57;5.05;;;;;;;5.36;100.00;101449.09;6132457;23;20564;-82
2021/04/10 06:22:55;;;;;;;16.63;4.97;;;;;;;5.37;100.00;101445.59;6131640;23;20016;-81
2021/04/10 06:25:20;;;;;;;13.45;3.83;;;;;;;5.39;100.00;101452.56;6132134;23;20016;-80
2021/04/10 06:27:45;;;;;;;12.35;4.15;;;;;;;5.42;100.00;101455.16;6133038;23;20002;-80
2021/04/10 06:30:12;;;;;;;10.38;4.75;;;;;;;5.54;100.00;101455.88;6131449;23;20029;-81
2021/04/10 06:32:37;;;;;;;14.35;5.07;;;;;;;5.50;100.00;101455.03;6131379;23;20006;-80
2021/04/10 06:35:04;;;;;;;11.02;4.32;;;;;;;5.48;100.00;101451.56;6131548;23;20006;-80
2021/04/10 06:37:30;;;;;;;11.85;4.38;;;;;;;5.54;100.00;101453.25;6131743;23;20520;-81
2021/04/10 06:39:55;;;;;;;14.13;4.72;;;;;;;5.58;100.00;101449.69;6125924;23;20017;-80
2021/04/10 06:42:21;;;;;;;15.07;6.13;;;;;;;5.49;100.00;101448.06;6126863;23;20009;-81
2021/04/10 06:44:47;;;;;;;9.57;4.13;;;;;;;5.62;100.00;101447.00;6127765;23;20002;-82
2021/04/10 06:47:14;;;;;;;12.43;4.70;;;;;;;5.62;100.00;101451.34;6102209;23;20069;-82
2021/04/10 06:49:40;;;;;;;17.25;5.55;;;;;;;5.77;100.00;101448.50;6100533;23;20010;-82
2021/04/10 06:52:06;;;;;;;15.70;4.07;;;;;;;5.56;100.00;101447.06;6100908;23;20114;-81
2021/04/10 06:54:34;;;;;;;10.57;4.50;;;;;;;5.77;100.00;101453.75;6099560;23;20443;-81
2021/04/10 06:57:10;;;;;;;14.10;3.85;;;;;;;5.89;100.00;101455.34;6126833;23;20002;-80
2021/04/10 06:59:54;;;;;;;16.08;4.30;;;;;;;5.99;100.00;101466.59;6126410;23;20005;-81
2021/04/10 07:02:19;;;;;;;13.20;4.65;;;;;;;5.96;100.00;101464.88;6126004;23;20002;-80
2021/04/10 07:04:45;;;;;;;10.77;4.40;;;;;;;6.18;100.00;101463.66;6098387;23;20013;-81
2021/04/10 07:07:11;;;;;;;12.98;4.40;;;;;;;6.21;100.00;101462.72;6098931;23;20006;-80
2021/04/10 07:09:37;;;;;;;9.63;3.58;;;;;;;6.34;100.00;101472.16;6098701;23;20005;-81
2021/04/10 07:12:07;;;;;;;12.77;4.10;;;;;;;6.31;100.00;101466.94;6125846;23;20006;-80
2021/04/10 07:14:32;;;;;;;12.70;3.35;;;;;;;6.38;100.00;101463.34;6099084;23;20002;-81
2021/04/10 07:16:57;;;;;;;11.93;4.03;;;;;;;6.43;100.00;101465.88;6125439;23;20017;-80
2021/04/10 07:19:27;;;;;;;10.60;4.10;;;;;;;6.37;100.00;101461.56;6124854;23;20009;-80
2021/04/10 07:22:13;;;;;;;15.05;4.03;;;;;;;6.56;100.00;101456.00;6123590;23;20755;-80
2021/04/10 07:24:43;;;;;;;14.32;4.07;;;;;;;6.56;100.00;101463.88;6097708;23;20069;-79
2021/04/10 07:27:15;;;;;;;10.05;3.10;;;;;;;6.52;100.00;101470.09;6124531;23;20009;-80
2021/04/10 07:29:45;;;;;;;11.05;3.92;;;;;;;6.73;100.00;101461.84;6122741;23;20343;-80
2021/04/10 07:32:25;;;;;;;11.85;3.22;;;;;;;6.68;100.00;101463.69;6123681;23;20037;-79
2021/04/10 07:34:52;;;;;;;8.88;3.60;;;;;;;6.94;100.00;101460.56;6125616;23;20672;-81
2021/04/10 07:37:33;;;;;;;13.38;3.83;;;;;;;7.10;100.00;101463.75;6095945;23;20116;-80
2021/04/10 07:40:00;;;;;;;13.32;3.58;;;;;;;7.08;100.00;101462.88;6123119;23;20017;-80
2021/04/10 07:42:28;;;;;;;11.18;4.53;;;;;;;7.31;100.00;101460.66;6095107;23;20009;-80
2021/04/10 07:44:54;;;;;;;13.85;3.97;;;;;;;7.39;100.00;101456.13;6120092;23;20032;-80
2021/04/10 07:47:32;;;;;;;9.55;3.45;;;;;;;7.53;100.00;101463.72;6095228;23;20364;-81
2021/04/10 07:50:17;;;;;;;10.77;3.35;;;;;;;7.47;100.00;101467.31;6124354;23;20426;-80
2021/04/10 07:52:43;;;;;;;13.27;3.92;;;;;;;7.57;100.00;101469.75;6099104;23;20016;-80
2021/04/10 07:55:09;;;;;;;13.13;3.40;;;;;;;7.74;100.00;101478.16;6124694;23;20029;-82
2021/04/10 07:57:34;;;;;;;14.45;2.97;;;;;;;7.63;100.00;101460.00;6098916;23;20006;-81
2021/04/10 08:00:02;;;;;;;14.57;3.97;;;;;;;7.40;100.00;101462.25;6125147;23;20014;-81
2021/04/10 08:02:34;;;;;;;13.60;3.83;;;;;;;7.30;100.00;101463.34;6098686;23;20001;-80
2021/04/10 08:05:02;;;;;;;11.82;3.60;;;;;;;7.55;100.00;101461.91;6098207;23;20006;-82
2021/04/10 08:07:32;;;;;;;13.65;3.50;;;;;;;7.50;100.00;101469.03;6124607;23;20006;-81
2021/04/10 08:10:08;;;;;;;10.20;3.30;;;;;;;7.52;100.00;101468.09;6124429;23;20258;-82
2021/04/10 08:12:39;;;;;;;8.40;4.00;;;;;;;7.61;100.00;101476.69;6123086;23;20083;-81
2021/04/10 08:15:07;;;;;;;15.20;4.28;;;;;;;7.62;100.00;101470.53;6098432;23;20048;-81
2021/04/10 08:17:36;;;;;;;17.42;4.95;;;;;;;7.74;100.00;101468.50;6126925;23;20002;-81
2021/04/10 08:20:24;;;;;;;19.23;3.53;;;;;;;7.73;100.00;101469.41;6126465;23;20002;-81
2021/04/10 08:22:50;;;;;;;20.55;4.93;;;;;;;7.91;100.00;101467.22;6125041;23;20393;-81
2021/04/10 08:25:31;;;;;;;16.35;3.53;;;;;;;8.15;100.00;101469.28;6125066;23;20137;-82
2021/04/10 08:27:57;;;;;;;17.70;3.65;;;;;;;7.98;100.00;101464.44;6100414;23;20010;-81
2021/04/10 08:30:23;;;;;;;16.17;4.22;;;;;;;8.24;100.00;101471.69;6099654;23;20032;-81
2021/04/10 08:32:48;;;;;;;10.50;3.85;;;;;;;8.56;100.00;101470.91;6125985;23;20428;-81
2021/04/10 08:35:15;;;;;;;13.43;4.30;;;;;;;8.45;100.00;101470.31;6100266;23;20707;-80
2021/04/10 08:37:41;;;;;;;11.85;3.45;;;;;;;8.10;100.00;101471.16;6126847;23;20017;-80
2021/04/10 08:40:09;;;;;;;14.93;3.90;;;;;;;8.32;100.00;101468.84;6126501;23;20030;-80
2021/04/10 08:42:36;;;;;;;17.63;3.90;;;;;;;8.26;100.00;101461.97;6098917;23;20024;-80
2021/04/10 08:45:02;;;;;;;14.45;4.22;;;;;;;8.48;100.00;101461.47;6124644;23;20077;-80
2021/04/10 08:47:28;;;;;;;15.45;4.22;;;;;;;8.22;100.00;101459.47;6130009;23;20010;-80
2021/04/10 08:49:55;;;;;;;21.25;4.28;;;;;;;8.14;100.00;101458.81;6127820;23;20458;-78
2021/04/10 08:52:32;;;;;;;15.77;4.30;;;;;;;8.12;100.00;101452.69;6129666;23;20010;-81
2021/04/10 08:54:58;;;;;;;13.52;4.30;;;;;;;8.31;100.00;101456.59;6130472;23;20006;-82
2021/04/10 08:57:36;;;;;;;16.35;4.32;;;;;;;8.14;100.00;101459.66;6126628;23;20006;-80
2021/04/10 09:00:17;;;;;;;12.25;4.38;;;;;;;8.17;100.00;101467.47;6126150;23;20410;-81
2021/04/10 09:02:56;;;;;;;15.38;3.97;;;;;;;8.22;100.00;101462.94;6125503;23;20002;-80
2021/04/10 09:05:23;;;;;;;15.02;4.72;;;;;;;8.08;100.00;101465.06;6125843;23;20010;-81
2021/04/10 09:07:48;;;;;;;18.38;4.47;;;;;;;8.33;100.00;101470.59;6128696;23;20071;-81
2021/04/10 09:10:27;;;;;;;21.97;4.90;;;;;;;8.36;100.00;101464.38;6128329;23;20376;-81
2021/04/10 09:13:04;;;;;;;26.25;6.07;;;;;;;8.40;100.00;101469.56;6129485;23;20295;-81
2021/04/10 09:15:30;;;;;;;17.70;4.30;;;;;;;8.62;100.00;101472.50;6128835;23;20048;-81
2021/04/10 09:17:57;;;;;;;15.77;4.20;;;;;;;8.72;100.00;101466.09;6100617;23;20044;-80
2021/04/10 09:20:44;;;;;;;14.20;4.10;;;;;;;8.70;100.00;101472.31;6124769;23;20013;-80
2021/04/10 09:23:26;;;;;;;12.07;3.50;;;;;;;8.78;100.00;101468.56;6125106;23;19998;-80
2021/04/10 09:26:13;;;;;;;17.83;5.70;;;;;;;8.83;100.00;101471.06;6125304;23;20009;-80
2021/04/10 09:28:54;;;;;;;16.80;4.10;;;;;;;8.96;100.00;101468.97;6126435;23;20424;-80
2021/04/10 09:31:36;;;;;;;16.80;4.65;;;;;;;9.12;100.00;101467.63;6125553;23;20089;-80
2021/04/10 09:34:05;;;;;;;15.27;4.97;;;;;;;8.88;100.00;101470.94;6126606;23;20036;-81
2021/04/10 09:36:49;;;;;;;10.27;4.03;;;;;;;8.80;100.00;101464.13;6099624;23;20018;-81
2021/04/10 09:39:52;;;;;;;14.45;5.50;;;;;;;9.01;100.00;101460.03;6117279;23;20777;-81
2021/04/10 09:42:39;;;;;;;16.40;4.10;;;;;;;9.07;100.00;101458.97;6123781;23;20061;-81
2021/04/10 09:45:11;;;;;;;15.13;4.28;;;;;;;8.97;100.00;101462.78;6124111;23;20020;-82
2021/04/10 09:47:52;;;;;;;11.60;4.28;;;;;;;8.74;100.00;101461.66;6125853;23;20002;-80
2021/04/10 09:50:18;;;;;;;13.75;4.50;;;;;;;8.68;100.00;101468.84;6098744;23;20009;-81
2021/04/10 09:52:43;;;;;;;15.93;3.80;;;;;;;8.49;100.00;101469.34;6125290;23;20012;-80
2021/04/10 09:55:10;;;;;;;12.68;4.25;;;;;;;8.37;100.00;101466.16;6125766;23;20010;-80
2021/04/10 09:57:36;;;;;;;17.85;4.57;;;;;;;8.25;100.00;101459.41;6126762;23;20001;-81
2021/04/10 10:00:03;;;;;;;19.52;4.25;;;;;;;8.31;100.00;101460.09;6099181;23;20074;-81
2021/04/10 10:02:28;;;;;;;15.05;4.40;;;;;;;8.02;100.00;101458.16;6126910;23;19997;-81
2021/04/10 10:04:53;;;;;;;9.10;4.07;;;;;;;8.15;100.00;101456.13;6127571;23;20316;-82
2021/04/10 10:07:28;;;;;;;11.45;4.75;;;;;;;8.13;100.00;101452.63;6098712;23;20002;-82
2021/04/10 10:10:07;;;;;;;14.10;4.28;;;;;;;8.32;100.00;101442.53;6126818;23;20044;-82
2021/04/10 10:12:32;;;;;;;14.95;4.90;;;;;;;8.36;100.00;101448.59;6125126;23;20490;-83
2021/04/10 10:14:57;;;;;;;14.40;4.45;;;;;;;8.38;100.00;101434.50;6124986;23;20034;-79
2021/04/10 10:17:29;;;;;;;15.30;4.55;;;;;;;8.49;100.00;101434.25;6126039;23;20395;-80
2021/04/10 10:20:27;;;;;;;22.42;7.25;;;;;;;8.56;100.00;101435.78;6124979;23;20053;-81
2021/04/10 10:22:52;;;;;;;12.77;4.43;;;;;;;8.56;100.00;101427.88;6065463;23;20010;-82
2021/04/10 10:25:18;;;;;;;14.82;4.97;;;;;;;8.59;100.00;101434.88;6060571;23;20147;-80
2021/04/10 10:27:46;;;;;;;11.82;4.43;;;;;;;8.65;100.00;101421.50;6063402;23;20015;-80
2021/04/10 10:30:19;;;;;;;14.50;4.25;;;;;;;8.87;100.00;101427.91;6063166;23;20042;-81
2021/04/10 10:32:49;;;;;;;12.60;4.78;;;;;;;8.69;100.00;101410.84;6064582;23;20015;-81
2021/04/10 10:35:17;;;;;;;14.00;5.05;;;;;;;8.78;100.00;101420.25;6065662;23;20007;-81
2021/04/10 10:37:47;;;;;;;9.48;3.95;;;;;;;8.81;100.00;101414.91;6039198;23;20043;-81
2021/04/10 10:40:26;;;;;;;15.75;5.15;;;;;;;8.87;100.00;101416.50;6039662;23;20018;-81
2021/04/10 10:43:02;;;;;;;15.73;4.25;;;;;;;9.01;100.00;101402.03;6042530;23;20018;-79
2021/04/10 10:45:45;;;;;;;15.65;5.20;;;;;;;8.95;100.00;101402.22;6041502;23;20010;-80
2021/04/10 10:48:18;;;;;;;14.70;3.90;;;;;;;9.05;100.00;101402.81;6062918;23;20018;-80
2021/04/10 10:50:44;;;;;;;13.30;3.90;;;;;;;8.88;100.00;101395.34;6037488;23;20041;-80
2021/04/10 10:53:26;;;;;;;16.83;4.93;;;;;;;8.70;100.00;101393.25;6036435;23;20011;-81
2021/04/10 10:56:12;;;;;;;17.15;4.97;;;;;;;8.59;100.00;101390.94;6036832;23;20011;-81
2021/04/10 10:58:49;;;;;;;10.85;4.68;;;;;;;8.93;100.00;101385.53;6079082;23;20069;-81
2021/04/10 11:01:16;;;;;;;11.70;3.58;;;;;;;9.08;100.00;101378.97;6097046;23;20432;-80
2021/04/10 11:03:48;;;;;;;13.98;4.68;;;;;;;9.02;100.00;101374.75;6097342;23;20002;-81
2021/04/10 11:06:22;;;;;;;16.35;4.30;;;;;;;8.87;100.00;101366.41;6095892;23;20069;-81
2021/04/10 11:08:48;;;;;;;9.88;4.22;;;;;;;8.78;100.00;101371.03;6070136;23;20622;-80
2021/04/10 11:11:14;;;;;;;13.35;4.50;;;;;;;8.44;100.00;101367.63;6093892;23;20002;-81
2021/04/10 11:13:45;;;;;;;7.40;4.00;;;;;;;8.32;100.00;101360.88;6094873;23;20010;-82
2021/04/10 11:16:11;;;;;;;14.95;4.18;;;;;;;8.24;100.00;101369.00;6096498;23;20008;-81
2021/04/10 11:18:37;;;;;;;16.67;4.75;;;;;;;8.26;100.00;101358.41;6073177;23;20017;-82
2021/04/10 11:21:22;;;;;;;11.20;4.22;;;;;;;8.47;100.00;101363.13;6095756;23;20097;-82
2021/04/10 11:24:03;;;;;;;10.60;4.05;;;;;;;8.48;100.00;101351.72;6071394;23;20074;-80
2021/04/10 11:26:33;;;;;;;15.55;4.40;;;;;;;8.29;100.00;101346.03;6095660;23;20013;-79